METAR Data
IDs: Format: Raw Decoded Include TAF

Data at: 0802 UTC 09 Apr 2020

K9L2 090758Z AUTO 00000KT 10SM -RA FEW050 M A3006 RMK AO2 RAB09 SLPNO P0000 FZRANO $
No TAF found for K9L2

KBIH 090756Z AUTO 15015G23KT 9SM -RA BKN030 OVC037 03/02 A2996 RMK AO2 PK WND 15028/0721 SLP130 P0006 T00280017 401560028

KBIH 090709Z 0907/1006 16011G21KT P6SM RA FEW010 BKN020 OVC040
  FM090900 15010KT P6SM -SHRA SCT008 BKN030
  FM091300 VRB05KT P6SM BKN030
  FM091900 15009KT P6SM VCSH SCT030 BKN060
  FM100300 15010KT P6SM FEW060 BKN100


KDAG 090750Z AUTO 28008KT 10SM CLR 07/04 A3006 RMK AO2 SLP178 T00670039 401220067

KDAG 090546Z 0906/1006 25007KT P6SM SCT030 BKN100
  FM091400 07009KT P6SM SCT050 BKN080
  FM091900 VRB05KT P6SM VCSH FEW030 BKN050
  FM092100 15008KT P6SM -SHRA BKN030


KEDW 090758Z AUTO 00000KT 10SM -DZ FEW033 SCT060 07/04 A3005 RMK AO2 RAB20E33DZB33E34RAB34E42DZB42 SLP179 P0001 T00670044 401020060

TAF AMD KEDW 082225Z 0822/1003 25012G18KT 9000 -SHRA SCT035 BKN050 610505 510009 QNH2990INS
  BECMG 0822/0823 25012G18KT 8000 -SHRA SCT035 OVC050 610506 510009 QNH2992INS
  BECMG 0907/0908 VRB06KT 9000 -SHRA SCT020 OVC030 610606 QNH2992INS
  BECMG 0914/0915 21010G15KT 9999 NSW SCT035 SCT060 BKN120 610606 QNH3002INS
  BECMG 0920/0921 32010G15KT 9000 -SHRA SCT040 BKN060 BKN120 QNH3005INS TX09/0822Z TN03/0913Z LAST NO AMDS AFT 0822 NEXT 0913


KFAT 090753Z 13013KT 3SM -RA BR BKN008 OVC011 09/08 A3002 RMK AO2 SFC VIS 4 SLP163 P0004 T00940083 401560094

KFAT 090527Z 0906/1006 12005KT P6SM SCT010 OVC025
  FM090800 12004KT P6SM OVC010
  FM091200 13005KT 6SM -RA BR BKN030 OVC050
  FM091600 13014G20KT 6SM -RA BR OVC050
  FM091900 VRB04KT P6SM -RA BKN020 OVC050


KGXA 090758Z AUTO 05003KT 10SM CLR 05/04 A3001 RMK AO2 SLP166 WND DATA ESTMD T00490040 400840046
No TAF found for KGXA

No METAR found for KIYK
No TAF found for KIYK

KLSV 090658Z 14010KT 10SM OVC070 11/03 A3002 RMK AO2A SLP156 T01130031 $

TAF KLSV 090700Z 0907/1013 15010KT 9999 SCT080 BKN120 QNH3002INS
  BECMG 0914/0915 11006KT 9999 SCT060 BKN090 620809 QNH3006INS
  BECMG 0919/0920 17010G20KT 9999 VCSH SCT040 BKN080 620809 510009 QNH3009INS
  BECMG 1004/1005 20008KT 9999 NSW SCT080 BKN110 620809 QNH3012INS TX19/0922Z TN10/0913Z


KMHV 090740Z AUTO 00000KT 10SM OVC055 05/03 A3006 RMK A01
No TAF found for KMHV

KNID 090756Z AUTO 03005KT 10SM SCT043 OVC060 06/05 A3007 RMK AO2 RAE0658 SLP188 P0000 T00610050 400940056 $

TAF AMD KNID 0900/0923 VRB05KT 9999 FEW010 SCT020 BKN040 OVC080 640409 641305 540109 541009 QNH2994NS
  TEMPO 0900/0903 VRB05KT 8000 -RA BR SCT015 BKN020 OVC040
  BECMG 0902/0903 14008G16KT 9999 FEW025 SCT040 VC100 640409 641305 540109 541009 QNH2992INS WND 120V220
  TEMPO 0903/0908 VRB05KT 8000 -RA BR FEW015 BKN025 OVC040
  BECMG 0908/0911 12008KT 6000 -RA BR SCT015 OVC025 640309 641206 540109 541009 QNH2990INS
  TEMPO 0911/0917 VRB05KT 4000 RA BR BKN015 OVC025
  BECMG 0917/0919 04008KT 9999 FEW025 SCT040 OVC100 640409 641305 540109 541009 QNH2995INS
  TEMPO 0917/0923 04010G20KT 9999 SCT025 OVC040 T03/0914Z T11/0922Z LAST NO AMD AFT 0801/ NEXT 0815 AMD 0044


KNLC 090756Z 13018G24KT 3SM -RA BR BKN006 BKN010 OVC021 09/09 A3000 RMK AO2 RAB27 SLP160 P0001 T00940089 401720083

TAF AMD KNLC 0907/1007 14012G20KT 9999 VCSH FEW035 BKN050 650809 651703 541009 551909 532809 QNH2994INS
  TEMPO 0907/0913 VRB06KT 6000 RA BR BKN006 BKN030
  FM091500 VRB06KT 9999 VCSH SCT035 BKN065 BKN090 650809 651703 541009 551909 532809 QNH2995INS
  FM092000 17009KT 9999 SCT045 BKN060 BKN080 600000 531809 532709 533603 QNH2993INS T08/0913Z T16/0923Z AMD 0740 FS30162


KNTD 090752Z AUTO 04005KT 10SM FEW038 FEW065 OVC085 12/08 A3009 RMK AO2 SLP191 T01170083 401500067 $

TAF KNTD 0907/1007 VRB06KT 9999 VCSH BKN030 BKN080 BKN120 OVC220 640409 641305 QNH3002INS
  TEMPO 0907/0913 8000 -SHRA BKN025 OVC050
  FM091300 18012KT 4800 -RA BR BKN015 OVC050 640409 641305 QNH2999INS AUTOMATED SENSOR METWATCH 0907 TIL 0913 T09/0912Z T15/0921Z FS30128


KNXP 090756Z AUTO 26006KT 10SM CLR 07/03 A3012 RMK AO2 SLP186 T00670028 401330050

TAF KNXP 0903/1003 VRB06KT 9999 FEW060 QNH3003INS
  TEMPO 0903/0909 30007KT
  TEMPO 0921/1003 18008KT AUTOMATED SENSOR METWATCH 0903 TIL 1003 T06/0911Z T14/0922Z


KPMD 090753Z AUTO 25004KT 10SM FEW047 OVC055 07/02 A3006 RMK AO2 SLP178 T00670017 401060061

KPMD 090536Z 0906/1006 21010KT P6SM VCSH OVC050
  FM091800 08006KT 4SM -RA BR BKN025
  FM092300 11008KT 4SM -RA BR OVC050
  FM100400 20008KT P6SM -SHRA OVC050


KRIV 090758Z AUTO 14004KT 10SM -RA BKN019 BKN026 BKN033 OVC044 08/06 A3010 RMK AO2 RAE0658RAB40 CIG 019V030 SLP193 P0001 T00760056 401220070

TAF KRIV 090413Z 0904/1010 16009KT 9999 VCSH SCT020 BKN030 OVC060 620405 QNH3005INS
  TEMPO 0904/0910 -SHRA SCT020 OVC030
  BECMG 0911/0912 15009KT 9999 -SHRA SCT015 BKN025 OVC040 620409 QNH3008INS
  TEMPO 0912/0915 8000 -SHRA BR SCT008 BKN015 OVC025
  BECMG 0914/0915 13009KT 8000 -RA BR SCT005 OVC015 620409 621305 540509 QNH3010INS
  BECMG 0917/0918 13009KT 8000 -RA BR SCT003 OVC010 620409 621305 540509 QNH3006INS
  TEMPO 0918/0921 13010G15KT 6000 RA BR OVC007
  BECMG 0920/0921 13010KT 6000 -RA BR FEW005 OVC015 620409 621305 540509 QNH3003INS WND 100V210
  TEMPO 0921/1003 16012G18KT 4800 RA BR SCT005 OVC010
  BECMG 1004/1005 15009KT 4800 -RA BR SCT007 OVC010 620409 621305 540509 QNH3006INS TX11/0921Z TN06/0913Z


KSDB 090753Z AUTO 17018G25KT 1/4SM FG VV001 02/02 A3001 RMK AO2 PK WND 15026/0701 UPB04E09B13E25SNE04 SLP158 P0000 T00220017 400500011 $
No TAF found for KSDB

KTSP 090755Z AUTO 15004KT 10SM BKN041 OVC049 01/01 A3003 RMK AO2
No TAF found for KTSP

KVCV 090248Z 17009KT 10SM BKN040 A3000
No TAF found for KVCV

KWJF 090756Z AUTO 23006KT 10SM -RA SCT039 OVC047 06/03 A3007 RMK AO2 RAE25B32 SLP189 P0000 T00610033 401060056

KWJF 090737Z 0908/1006 21008KT P6SM VCSH BKN035 OVC050
  FM091800 08006KT 4SM -RA BR BKN025
  FM092300 08010KT 4SM -RA BR OVC050
  FM100400 23008KT P6SM -SHRA OVC050